createdAt,value
2019-01-16T00:00:16.140Z,10.10
2019-01-16T00:01:16.068Z,10.30
2019-01-16T00:02:16.032Z,10.00
2019-01-16T00:03:15.991Z,10.40
2019-01-16T00:04:15.936Z,9.90
2019-01-16T00:05:15.897Z,10.00
2019-01-16T00:06:15.885Z,10.20
2019-01-16T00:07:15.814Z,9.40
2019-01-16T00:08:15.773Z,9.70
2019-01-16T00:09:15.743Z,10.30
2019-01-16T00:10:15.678Z,10.30
2019-01-16T00:11:15.632Z,10.00
2019-01-16T00:12:15.609Z,10.00
2019-01-16T00:13:15.548Z,10.30
2019-01-16T00:14:15.507Z,10.10
2019-01-16T00:15:15.465Z,9.70
2019-01-16T00:16:15.419Z,10.30
2019-01-16T00:17:15.398Z,10.40
2019-01-16T00:18:17.247Z,10.30
2019-01-16T00:19:15.285Z,10.30
2019-01-16T00:20:15.253Z,10.50
2019-01-16T00:21:15.210Z,10.70
2019-01-16T00:22:15.176Z,10.70
2019-01-16T00:23:15.122Z,11.20
2019-01-16T00:24:15.071Z,12.00
2019-01-16T00:25:15.018Z,11.10
2019-01-16T00:26:14.994Z,10.90
2019-01-16T00:27:14.963Z,11.30
2019-01-16T00:28:14.899Z,11.50
2019-01-16T00:29:14.902Z,11.70
2019-01-16T00:30:14.801Z,11.30
2019-01-16T00:31:14.757Z,11.70
2019-01-16T00:32:14.737Z,12.20
2019-01-16T00:33:14.668Z,11.50
2019-01-16T00:34:14.635Z,12.00
2019-01-16T00:35:14.610Z,11.60
2019-01-16T00:36:14.538Z,11.40
2019-01-16T00:37:14.497Z,11.80
2019-01-16T00:38:14.480Z,12.20
2019-01-16T00:39:14.413Z,11.40
2019-01-16T00:40:14.413Z,12.00
2019-01-16T00:41:14.326Z,12.10
2019-01-16T00:42:14.281Z,12.50
2019-01-16T00:43:14.269Z,11.90
2019-01-16T00:44:14.185Z,12.30
2019-01-16T00:45:14.143Z,12.60
2019-01-16T00:46:14.141Z,12.40
2019-01-16T00:47:14.066Z,11.40
2019-01-16T00:48:14.022Z,12.00
2019-01-16T00:49:13.999Z,12.40
2019-01-16T00:50:13.925Z,11.60
2019-01-16T00:51:13.883Z,11.80
2019-01-16T00:52:13.863Z,12.20
2019-01-16T00:53:13.804Z,12.40
2019-01-16T00:54:13.779Z,12.60
2019-01-16T00:55:13.707Z,12.60
2019-01-16T00:56:13.685Z,12.70
2019-01-16T00:57:13.617Z,12.70
2019-01-16T00:58:13.583Z,12.90
2019-01-16T00:59:13.560Z,12.70
2019-01-16T01:00:13.497Z,12.60
2019-01-16T01:01:13.451Z,12.60
2019-01-16T01:02:13.421Z,12.80
2019-01-16T01:03:13.353Z,12.20
2019-01-16T01:04:13.313Z,12.60
2019-01-16T01:05:13.266Z,12.40
2019-01-16T01:06:13.231Z,12.30
2019-01-16T01:07:13.212Z,13.40
2019-01-16T01:08:13.135Z,12.60
2019-01-16T01:09:13.094Z,12.80
2019-01-16T01:10:13.079Z,12.50
2019-01-16T01:11:13.013Z,12.30
2019-01-16T01:12:12.968Z,12.50
2019-01-16T01:13:12.926Z,13.10
2019-01-16T01:14:12.894Z,12.80
2019-01-16T01:15:12.851Z,12.20
2019-01-16T01:16:12.788Z,13.00
2019-01-16T01:17:12.749Z,11.70
2019-01-16T01:18:12.707Z,13.10
2019-01-16T01:19:12.663Z,12.10
2019-01-16T01:20:12.641Z,12.20
2019-01-16T01:21:12.572Z,12.10
2019-01-16T01:22:12.525Z,11.90
2019-01-16T01:23:12.480Z,11.50
2019-01-16T01:24:12.443Z,13.70
2019-01-16T01:25:12.424Z,12.20
2019-01-16T01:26:12.348Z,11.90
2019-01-16T01:27:12.305Z,12.70
2019-01-16T01:28:12.260Z,11.20
2019-01-16T01:29:12.214Z,12.70
2019-01-16T01:30:12.176Z,11.70
2019-01-16T01:31:12.160Z,11.70
2019-01-16T01:32:12.089Z,11.50
2019-01-16T01:33:12.047Z,11.00
2019-01-16T01:34:12.004Z,11.10
2019-01-16T01:35:11.955Z,11.50
2019-01-16T01:36:11.907Z,10.70
2019-01-16T01:37:11.984Z,11.90
2019-01-16T01:38:11.824Z,11.50
2019-01-16T01:39:11.781Z,12.70
2019-01-16T01:40:11.731Z,11.50
2019-01-16T01:41:11.739Z,11.30
2019-01-16T01:42:11.692Z,11.30
2019-01-16T01:43:11.607Z,11.70
2019-01-16T01:44:11.560Z,11.30
2019-01-16T01:45:11.519Z,11.50
2019-01-16T01:46:11.491Z,11.40
2019-01-16T01:47:11.427Z,11.90
2019-01-16T01:48:11.383Z,12.30
2019-01-16T01:49:12.108Z,11.00
2019-01-16T01:50:11.327Z,10.80
2019-01-16T01:51:11.932Z,11.20
2019-01-16T01:52:11.302Z,11.10
2019-01-16T01:53:11.165Z,11.30
2019-01-16T01:54:11.115Z,11.00
2019-01-16T01:55:11.073Z,11.20
2019-01-16T01:56:11.034Z,12.10
2019-01-16T01:57:11.030Z,11.50
2019-01-16T01:58:10.939Z,10.80
2019-01-16T01:59:10.896Z,11.00
2019-01-16T02:00:11.924Z,10.80
2019-01-16T02:01:10.806Z,11.00
2019-01-16T02:02:10.771Z,11.20
2019-01-16T02:03:10.763Z,11.60
2019-01-16T02:04:10.680Z,11.50
2019-01-16T02:05:10.642Z,11.40
2019-01-16T02:06:10.587Z,11.50
2019-01-16T02:07:10.543Z,11.20
2019-01-16T02:08:10.533Z,10.70
2019-01-16T02:09:10.480Z,10.60
2019-01-16T02:10:10.424Z,11.20
2019-01-16T02:11:10.377Z,11.60
2019-01-16T02:12:10.324Z,11.10
2019-01-16T02:13:10.280Z,11.70
2019-01-16T02:14:10.278Z,12.30
2019-01-16T02:15:10.209Z,11.00
2019-01-16T02:16:10.158Z,10.60
2019-01-16T02:17:10.113Z,11.20
2019-01-16T02:18:10.061Z,11.70
2019-01-16T02:19:10.023Z,11.10
2019-01-16T02:20:09.996Z,10.30
2019-01-16T02:21:09.930Z,11.70
2019-01-16T02:22:09.894Z,10.30
2019-01-16T02:23:09.873Z,10.30
2019-01-16T02:24:09.804Z,10.90
2019-01-16T02:25:09.762Z,11.30
2019-01-16T02:26:09.711Z,12.30
2019-01-16T02:27:09.670Z,10.70
2019-01-16T02:28:09.657Z,11.70
2019-01-16T02:29:09.586Z,10.50
2019-01-16T02:30:09.541Z,11.80
2019-01-16T02:31:09.492Z,9.90
2019-01-16T02:32:09.445Z,9.50
2019-01-16T02:33:09.405Z,11.80
2019-01-16T02:34:09.389Z,10.10
2019-01-16T02:35:09.321Z,11.40
2019-01-16T02:36:09.297Z,12.50
2019-01-16T02:37:09.233Z,10.90
2019-01-16T02:38:09.194Z,9.40
2019-01-16T02:39:09.140Z,11.60
2019-01-16T02:40:09.092Z,9.40
2019-01-16T02:41:09.074Z,9.60
2019-01-16T02:42:09.020Z,9.60
2019-01-16T02:43:08.972Z,9.90
2019-01-16T02:44:08.923Z,8.70
2019-01-16T02:45:08.903Z,9.30
2019-01-16T02:46:08.841Z,9.00
2019-01-16T02:47:08.794Z,9.40
2019-01-16T02:48:08.773Z,8.90
2019-01-16T02:49:08.729Z,9.00
2019-01-16T02:50:08.673Z,9.40
2019-01-16T02:51:08.610Z,8.20
2019-01-16T02:52:08.568Z,9.30
2019-01-16T02:53:08.557Z,9.40
2019-01-16T02:54:08.486Z,9.90
2019-01-16T02:55:08.443Z,9.50
2019-01-16T02:56:08.396Z,9.50
2019-01-16T02:57:08.356Z,9.80
2019-01-16T02:58:08.326Z,9.10
2019-01-16T02:59:08.261Z,9.40
2019-01-16T03:00:08.248Z,9.00
2019-01-16T03:01:08.179Z,9.00
2019-01-16T03:02:08.132Z,8.90
2019-01-16T03:03:08.086Z,9.40
2019-01-16T03:04:08.062Z,8.80
2019-01-16T03:05:08.018Z,9.10
2019-01-16T03:06:07.958Z,9.40
2019-01-16T03:07:07.916Z,8.80
2019-01-16T03:08:07.872Z,9.80
2019-01-16T03:09:07.856Z,9.70
2019-01-16T03:10:07.780Z,8.70
2019-01-16T03:11:07.734Z,8.60
2019-01-16T03:12:07.691Z,8.90
2019-01-16T03:13:07.655Z,9.80
2019-01-16T03:14:07.609Z,10.50
2019-01-16T03:15:07.592Z,9.10
2019-01-16T03:16:07.514Z,8.80
2019-01-16T03:17:07.469Z,9.50
2019-01-16T03:18:07.437Z,8.90
2019-01-16T03:19:07.399Z,9.10
2019-01-16T03:20:07.368Z,10.10
2019-01-16T03:21:07.301Z,10.90
2019-01-16T03:22:07.268Z,9.40
2019-01-16T03:23:07.205Z,10.80
2019-01-16T03:24:07.157Z,10.60
2019-01-16T03:25:07.143Z,8.60
2019-01-16T03:26:07.085Z,10.50
2019-01-16T03:27:07.036Z,9.90
2019-01-16T03:28:06.991Z,9.60
2019-01-16T03:29:06.946Z,9.50
2019-01-16T03:30:06.927Z,9.70
2019-01-16T03:31:16.266Z,10.40
2019-01-16T03:32:06.818Z,9.60
2019-01-16T03:33:06.887Z,9.40
2019-01-16T03:34:06.729Z,10.80
2019-01-16T03:35:06.708Z,9.50
2019-01-16T03:36:06.652Z,10.50
2019-01-16T03:37:06.601Z,10.00
2019-01-16T03:38:06.569Z,11.10
2019-01-16T03:39:15.220Z,11.80
2019-01-16T03:40:15.244Z,10.50
2019-01-16T03:41:06.424Z,11.20
2019-01-16T03:42:06.385Z,9.30
2019-01-16T03:43:06.390Z,10.30
2019-01-16T03:44:06.298Z,10.40
2019-01-16T03:45:06.242Z,10.70
2019-01-16T03:46:06.228Z,10.70
2019-01-16T03:47:06.161Z,11.20
2019-01-16T03:48:06.121Z,9.60
2019-01-16T03:49:13.332Z,13.20
2019-01-16T03:50:06.020Z,11.50
2019-01-16T03:51:06.006Z,10.60
2019-01-16T03:52:05.970Z,10.00
2019-01-16T03:53:05.893Z,10.40
2019-01-16T03:54:05.853Z,11.10
2019-01-16T03:55:05.808Z,12.90
2019-01-16T03:56:05.796Z,11.80
2019-01-16T03:57:05.726Z,11.50
2019-01-16T03:58:05.674Z,10.40
2019-01-16T03:59:05.634Z,12.00
2019-01-16T04:00:05.583Z,10.70
2019-01-16T04:01:05.537Z,10.00
2019-01-16T04:02:05.519Z,11.70
2019-01-16T04:03:05.469Z,10.70
2019-01-16T04:04:05.412Z,10.90
2019-01-16T04:05:05.367Z,10.60
2019-01-16T04:06:05.328Z,11.70
2019-01-16T04:07:05.300Z,11.90
2019-01-16T04:08:05.224Z,10.60
2019-01-16T04:09:05.176Z,10.90
2019-01-16T04:10:05.141Z,12.50
2019-01-16T04:11:05.090Z,12.30
2019-01-16T04:12:05.059Z,12.70
2019-01-16T04:13:05.049Z,11.20
2019-01-16T04:14:04.960Z,11.80
2019-01-16T04:15:04.911Z,13.30
2019-01-16T04:16:04.881Z,11.60
2019-01-16T04:17:04.843Z,11.40
2019-01-16T04:18:04.822Z,12.60
2019-01-16T04:19:04.756Z,10.40
2019-01-16T04:20:04.696Z,10.70
2019-01-16T04:21:04.652Z,10.20
2019-01-16T04:22:04.607Z,10.80
2019-01-16T04:23:04.581Z,10.10
2019-01-16T04:24:04.523Z,10.40
2019-01-16T04:25:04.514Z,10.00
2019-01-16T04:26:04.440Z,9.40
2019-01-16T04:27:04.394Z,9.80
2019-01-16T04:28:04.339Z,10.50
2019-01-16T04:29:04.304Z,9.70
2019-01-16T04:30:04.270Z,12.70
2019-01-16T04:31:04.247Z,10.90
2019-01-16T04:32:04.165Z,11.10
2019-01-16T04:33:04.123Z,10.10
2019-01-16T04:34:04.100Z,9.90
2019-01-16T04:35:04.044Z,9.70
2019-01-16T04:36:03.991Z,9.40
2019-01-16T04:37:03.947Z,10.20
2019-01-16T04:38:03.949Z,9.50
2019-01-16T04:39:03.890Z,11.30
2019-01-16T04:40:03.828Z,11.60
2019-01-16T04:41:03.764Z,9.90
2019-01-16T04:42:03.736Z,10.10
2019-01-16T04:43:03.675Z,10.10
2019-01-16T04:44:03.686Z,9.40
2019-01-16T04:45:03.624Z,9.20
2019-01-16T04:46:03.560Z,10.70
2019-01-16T04:47:03.529Z,9.10
2019-01-16T04:48:03.486Z,10.40
2019-01-16T04:49:03.423Z,8.80
2019-01-16T04:50:03.402Z,9.80
2019-01-16T04:51:03.340Z,9.80
2019-01-16T04:52:03.302Z,9.50
2019-01-16T04:53:03.254Z,10.80
2019-01-16T04:54:03.205Z,8.80
2019-01-16T04:55:03.187Z,10.30
2019-01-16T04:56:03.115Z,9.10
2019-01-16T04:57:03.073Z,8.70
2019-01-16T04:58:03.026Z,8.90
2019-01-16T04:59:02.981Z,9.30
2019-01-16T05:00:02.936Z,9.80
2019-01-16T05:01:02.911Z,8.70
2019-01-16T05:02:02.855Z,9.90
2019-01-16T05:03:02.807Z,8.30
2019-01-16T05:04:02.755Z,8.80
2019-01-16T05:05:02.708Z,8.70
2019-01-16T05:06:02.693Z,8.80
2019-01-16T05:07:02.621Z,8.20
2019-01-16T05:08:02.582Z,10.20
2019-01-16T05:09:02.549Z,8.30
2019-01-16T05:10:02.494Z,8.60
2019-01-16T05:11:02.479Z,9.30
2019-01-16T05:12:02.400Z,8.70
2019-01-16T05:13:02.360Z,9.10
2019-01-16T05:14:02.313Z,8.60
2019-01-16T05:15:02.279Z,8.20
2019-01-16T05:16:02.243Z,8.70
2019-01-16T05:17:02.215Z,7.80
2019-01-16T05:18:02.135Z,9.10
2019-01-16T05:19:02.097Z,8.30
2019-01-16T05:20:02.059Z,8.10
2019-01-16T05:21:02.015Z,7.80
2019-01-16T05:22:01.985Z,8.70
2019-01-16T05:23:01.949Z,8.90
2019-01-16T05:24:01.871Z,8.40
2019-01-16T05:25:01.847Z,7.60
2019-01-16T05:26:01.791Z,8.20
2019-01-16T05:27:01.773Z,8.30
2019-01-16T05:28:01.744Z,8.20
2019-01-16T05:29:01.663Z,7.60
2019-01-16T05:30:01.625Z,8.40
2019-01-16T05:31:01.578Z,9.30
2019-01-16T05:32:01.532Z,7.60
2019-01-16T05:33:01.488Z,8.50
2019-01-16T05:34:01.475Z,8.30
2019-01-16T05:35:01.407Z,7.70
2019-01-16T05:36:01.357Z,7.40
2019-01-16T05:37:01.300Z,7.40
2019-01-16T05:38:01.298Z,7.60
2019-01-16T05:39:01.236Z,7.00
2019-01-16T05:40:01.177Z,8.20
2019-01-16T05:41:01.162Z,7.50
2019-01-16T05:42:01.097Z,7.10
2019-01-16T05:43:01.067Z,7.40
2019-01-16T05:44:01.023Z,6.80
2019-01-16T05:45:00.949Z,8.00
2019-01-16T05:46:00.928Z,7.90
2019-01-16T05:47:00.864Z,7.20
2019-01-16T05:48:00.867Z,7.00
2019-01-16T05:49:00.797Z,7.50
2019-01-16T05:50:00.750Z,7.00
2019-01-16T05:51:00.691Z,6.60
2019-01-16T05:52:00.653Z,6.80
2019-01-16T05:53:00.608Z,6.90
2019-01-16T05:54:00.589Z,6.70
2019-01-16T05:55:00.525Z,7.50
2019-01-16T05:56:00.473Z,6.80
2019-01-16T05:57:00.428Z,6.90
2019-01-16T05:58:00.379Z,7.30
2019-01-16T05:59:00.387Z,6.80
2019-01-16T06:00:00.302Z,7.10
2019-01-16T06:01:00.261Z,6.80
2019-01-16T06:02:00.215Z,6.80
2019-01-16T06:03:00.176Z,6.20
2019-01-16T06:04:00.125Z,7.50
2019-01-16T06:05:00.122Z,7.40
2019-01-16T06:06:00.039Z,6.00
2019-01-16T06:07:00.001Z,7.30
2019-01-16T06:07:59.951Z,6.60
2019-01-16T06:08:59.900Z,6.50
2019-01-16T06:09:59.860Z,9.60
2019-01-16T06:10:59.843Z,6.90
2019-01-16T06:11:59.772Z,5.80
2019-01-16T06:12:59.733Z,6.20
2019-01-16T06:13:59.678Z,7.00
2019-01-16T06:14:59.646Z,5.80
2019-01-16T06:15:59.633Z,6.70
2019-01-16T06:16:59.554Z,5.70
2019-01-16T06:17:59.516Z,5.80
2019-01-16T06:18:59.471Z,5.90
2019-01-16T06:19:59.420Z,5.70
2019-01-16T06:20:59.395Z,6.30
2019-01-16T06:21:59.349Z,6.50
2019-01-16T06:22:59.294Z,5.70
2019-01-16T06:23:59.243Z,5.20
2019-01-16T06:24:59.220Z,6.90
2019-01-16T06:25:59.157Z,5.40
2019-01-16T06:26:59.121Z,5.60
2019-01-16T06:27:59.070Z,5.30
2019-01-16T06:28:59.041Z,6.60
2019-01-16T06:29:59.010Z,6.40
2019-01-16T06:30:58.940Z,6.30
2019-01-16T06:31:58.886Z,5.90
2019-01-16T06:32:58.869Z,5.10
2019-01-16T06:33:58.808Z,6.80
2019-01-16T06:34:58.765Z,5.40
2019-01-16T06:35:58.736Z,5.10
2019-01-16T06:36:58.702Z,5.70
2019-01-16T06:37:58.629Z,6.90
2019-01-16T06:38:58.595Z,5.50
2019-01-16T06:39:58.597Z,5.60
2019-01-16T06:40:58.510Z,5.40
2019-01-16T06:41:58.459Z,5.10
2019-01-16T06:42:58.444Z,5.50
2019-01-16T06:43:58.363Z,6.50
2019-01-16T06:44:58.320Z,5.10
2019-01-16T06:45:58.311Z,6.40
2019-01-16T06:46:58.245Z,6.00
2019-01-16T06:47:58.195Z,5.20
2019-01-16T06:48:58.157Z,6.20
2019-01-16T06:50:01.833Z,5.60
2019-01-16T06:50:58.089Z,6.90
2019-01-16T06:51:58.026Z,6.00
2019-01-16T06:52:57.987Z,6.60
2019-01-16T06:53:57.956Z,7.60
2019-01-16T06:54:57.906Z,6.30
2019-01-16T06:55:57.912Z,6.40
2019-01-16T06:56:57.804Z,6.20
2019-01-16T06:57:57.785Z,7.60
2019-01-16T06:58:57.719Z,5.80
2019-01-16T06:59:57.698Z,6.20
2019-01-16T07:00:57.660Z,5.80
2019-01-16T07:01:57.588Z,5.00
2019-01-16T07:02:57.541Z,5.00
2019-01-16T07:03:57.491Z,5.60
2019-01-16T07:04:57.446Z,5.10
2019-01-16T07:05:57.408Z,5.50
2019-01-16T07:06:57.397Z,6.90
2019-01-16T07:07:57.343Z,5.40
2019-01-16T07:08:57.275Z,6.50
2019-01-16T07:09:57.227Z,5.00
2019-01-16T07:10:57.191Z,4.70
2019-01-16T07:11:57.167Z,5.30
2019-01-16T07:12:57.125Z,6.60
2019-01-16T07:13:57.080Z,5.70
2019-01-16T07:14:57.012Z,5.70
2019-01-16T07:15:56.959Z,6.60
2019-01-16T07:16:56.949Z,5.20
2019-01-16T07:17:56.879Z,4.80
2019-01-16T07:18:56.864Z,4.60
2019-01-16T07:19:56.807Z,5.00
2019-01-16T07:20:56.752Z,5.80
2019-01-16T07:21:56.732Z,6.10
2019-01-16T07:22:56.678Z,8.10
2019-01-16T07:23:56.621Z,5.30
2019-01-16T07:24:56.578Z,5.50
2019-01-16T07:25:56.540Z,4.70
2019-01-16T07:26:56.535Z,5.40
2019-01-16T07:27:56.444Z,5.10
2019-01-16T07:28:56.395Z,4.60
2019-01-16T07:29:56.355Z,6.10
2019-01-16T07:30:56.355Z,4.70
2019-01-16T07:31:56.290Z,4.80
2019-01-16T07:32:56.262Z,5.10
2019-01-16T07:33:56.241Z,4.80
2019-01-16T07:34:56.146Z,5.30
2019-01-16T07:35:56.114Z,4.70
2019-01-16T07:36:56.063Z,4.50
2019-01-16T07:37:56.045Z,4.30
2019-01-16T07:38:55.973Z,5.70
2019-01-16T07:39:55.928Z,5.50
2019-01-16T07:40:55.879Z,4.70
2019-01-16T07:41:55.843Z,5.10
2019-01-16T07:42:55.908Z,4.50
2019-01-16T07:43:55.787Z,4.90
2019-01-16T07:44:55.720Z,4.70
2019-01-16T07:45:55.697Z,7.20
2019-01-16T07:46:55.659Z,5.30
2019-01-16T07:47:55.585Z,5.40
2019-01-16T07:48:55.520Z,5.30
2019-01-16T07:49:55.505Z,5.10
2019-01-16T07:50:55.480Z,5.40
2019-01-16T07:51:55.455Z,4.90
2019-01-16T07:52:55.354Z,5.80
2019-01-16T07:53:55.390Z,4.60
2019-01-16T07:54:55.290Z,4.50
2019-01-16T07:55:55.232Z,5.20
2019-01-16T07:56:55.213Z,5.40
2019-01-16T07:57:55.208Z,6.10
2019-01-16T07:58:55.148Z,6.10
2019-01-16T07:59:55.056Z,7.10
2019-01-16T08:00:55.078Z,6.10
2019-01-16T08:01:54.983Z,4.10
2019-01-16T08:02:54.914Z,6.60
2019-01-16T08:04:04.951Z,5.30
2019-01-16T08:05:04.457Z,6.30
2019-01-16T08:05:54.863Z,4.40
2019-01-16T08:06:54.838Z,4.20
2019-01-16T08:07:55.401Z,4.90
2019-01-16T08:08:54.665Z,5.20
2019-01-16T08:09:54.637Z,5.00
2019-01-16T08:10:54.548Z,5.20
2019-01-16T08:11:54.525Z,5.70
2019-01-16T08:12:54.495Z,5.80
2019-01-16T08:13:54.428Z,5.10
2019-01-16T08:14:54.375Z,6.00
2019-01-16T08:15:54.361Z,4.90
2019-01-16T08:16:54.298Z,6.10
2019-01-16T08:17:54.245Z,6.20
2019-01-16T08:18:54.212Z,8.30
2019-01-16T08:19:54.206Z,5.50
2019-01-16T08:20:54.153Z,6.50
2019-01-16T08:21:54.122Z,5.00
2019-01-16T08:22:54.057Z,6.60
2019-01-16T08:23:53.985Z,5.60
2019-01-16T08:24:53.975Z,4.80
2019-01-16T08:25:53.907Z,7.00
2019-01-16T08:26:53.871Z,7.40
2019-01-16T08:27:53.818Z,6.00
2019-01-16T08:28:53.774Z,9.10
2019-01-16T08:29:53.717Z,6.00
2019-01-16T08:30:53.694Z,6.20
2019-01-16T08:31:53.652Z,5.90
2019-01-16T08:32:53.604Z,6.70
2019-01-16T08:33:53.547Z,6.20
2019-01-16T08:34:53.551Z,5.90
2019-01-16T08:35:53.458Z,6.80
2019-01-16T08:36:53.405Z,6.10
2019-01-16T08:37:53.366Z,6.70
2019-01-16T08:38:53.347Z,6.00
2019-01-16T08:39:53.314Z,8.00
2019-01-16T08:40:53.289Z,7.20
2019-01-16T08:41:53.232Z,6.80
2019-01-16T08:42:53.186Z,6.70
2019-01-16T08:43:53.130Z,7.30
2019-01-16T08:44:53.084Z,8.10
2019-01-16T08:45:53.035Z,7.10
2019-01-16T08:46:53.010Z,9.70
2019-01-16T08:47:52.976Z,9.20
2019-01-16T08:48:52.895Z,8.30
2019-01-16T08:49:52.877Z,8.30
2019-01-16T08:50:52.810Z,8.40
2019-01-16T08:51:52.800Z,9.30
2019-01-16T08:52:52.738Z,10.00
2019-01-16T08:53:52.696Z,9.10
2019-01-16T08:54:52.684Z,11.80
2019-01-16T08:55:52.597Z,9.00
2019-01-16T08:56:52.568Z,10.10
2019-01-16T08:57:52.532Z,8.60
2019-01-16T08:58:52.466Z,10.40
2019-01-16T08:59:52.423Z,11.80
2019-01-16T09:00:52.371Z,11.10
2019-01-16T09:01:52.357Z,12.50
2019-01-16T09:02:52.284Z,13.40
2019-01-16T09:03:52.250Z,11.50
2019-01-16T09:04:52.203Z,11.30
2019-01-16T09:05:52.167Z,12.60
2019-01-16T09:06:52.134Z,11.30
2019-01-16T09:07:52.116Z,11.30
2019-01-16T09:08:52.106Z,11.70
2019-01-16T09:09:51.976Z,11.40
2019-01-16T09:10:51.939Z,11.40
2019-01-16T09:11:51.986Z,12.00
2019-01-16T09:12:51.876Z,12.20
2019-01-16T09:13:51.839Z,15.70
2019-01-16T09:14:51.767Z,12.50
2019-01-16T09:15:51.729Z,13.40
2019-01-16T09:16:51.699Z,13.40
2019-01-16T09:17:51.664Z,12.10
2019-01-16T09:18:51.608Z,12.40
2019-01-16T09:19:51.529Z,12.80
2019-01-16T09:20:51.520Z,12.90
2019-01-16T09:21:51.515Z,12.20
2019-01-16T09:22:51.406Z,12.80
2019-01-16T09:23:51.369Z,13.60
2019-01-16T09:24:51.335Z,13.30
2019-01-16T09:25:51.285Z,12.80
2019-01-16T09:26:51.264Z,12.70
2019-01-16T09:27:51.238Z,15.50
2019-01-16T09:28:51.139Z,13.80
2019-01-16T09:29:51.113Z,12.60
2019-01-16T09:30:51.072Z,15.10
2019-01-16T09:31:51.021Z,14.10
2019-01-16T09:32:51.026Z,12.80
2019-01-16T09:33:50.931Z,14.30
2019-01-16T09:34:50.902Z,13.30
2019-01-16T09:35:50.860Z,12.60
2019-01-16T09:36:50.832Z,13.80
2019-01-16T09:37:50.815Z,13.70
2019-01-16T09:38:50.736Z,13.90
2019-01-16T09:39:50.662Z,13.60
2019-01-16T09:40:50.640Z,12.60
2019-01-16T09:41:50.679Z,12.80
2019-01-16T09:42:50.772Z,15.90
2019-01-16T09:43:50.513Z,13.10
2019-01-16T09:44:50.461Z,13.70
2019-01-16T09:45:50.399Z,13.80
2019-01-16T09:46:50.404Z,14.60
2019-01-16T09:47:50.817Z,12.60
2019-01-16T09:48:50.605Z,14.10
2019-01-16T09:49:50.235Z,14.00
2019-01-16T09:50:50.195Z,11.30
2019-01-16T09:51:50.142Z,11.10
2019-01-16T09:52:50.126Z,11.60
2019-01-16T09:53:50.894Z,11.80
2019-01-16T09:54:50.036Z,12.00
2019-01-16T09:55:49.997Z,10.80
2019-01-16T09:56:49.941Z,10.80
2019-01-16T09:57:49.890Z,12.30
2019-01-16T09:58:49.844Z,11.50
2019-01-16T09:59:49.814Z,11.50
2019-01-16T10:00:49.746Z,10.20
2019-01-16T10:01:49.704Z,10.70
2019-01-16T10:02:49.668Z,10.80
2019-01-16T10:03:49.610Z,10.90
2019-01-16T10:04:49.589Z,12.90
2019-01-16T10:05:49.580Z,12.30
2019-01-16T10:06:49.470Z,12.80
2019-01-16T10:07:49.467Z,11.80
2019-01-16T10:08:49.452Z,11.50
2019-01-16T10:09:49.364Z,10.80
2019-01-16T10:10:49.328Z,11.70
2019-01-16T10:11:49.301Z,12.60
2019-01-16T10:12:49.215Z,9.80
2019-01-16T10:13:49.196Z,9.40
2019-01-16T10:14:49.140Z,9.60
2019-01-16T10:15:49.130Z,10.20
2019-01-16T10:16:49.063Z,11.20
2019-01-16T10:17:49.005Z,8.60
2019-01-16T10:18:48.961Z,8.60
2019-01-16T10:19:48.921Z,9.30
2019-01-16T10:20:55.438Z,9.60
2019-01-16T10:21:48.884Z,10.30
2019-01-16T10:22:48.784Z,8.00
2019-01-16T10:23:48.820Z,10.60
2019-01-16T10:24:48.706Z,9.10
2019-01-16T10:25:48.655Z,9.50
2019-01-16T10:26:48.603Z,10.80
2019-01-16T10:27:48.626Z,9.40
2019-01-16T10:28:48.539Z,9.90
2019-01-16T10:29:48.506Z,9.50
2019-01-16T10:30:48.453Z,9.80
2019-01-16T10:31:48.392Z,12.10
2019-01-16T10:32:48.384Z,9.00
2019-01-16T10:33:48.316Z,12.10
2019-01-16T10:34:48.256Z,9.40
2019-01-16T10:35:48.222Z,9.40
2019-01-16T10:36:48.180Z,10.40
2019-01-16T10:37:48.190Z,10.40
2019-01-16T10:38:48.106Z,9.90
2019-01-16T10:39:48.040Z,10.10
2019-01-16T10:40:48.023Z,10.90
2019-01-16T10:41:48.037Z,9.80
2019-01-16T10:42:47.932Z,10.80
2019-01-16T10:43:47.906Z,10.20
2019-01-16T10:44:47.834Z,10.20
2019-01-16T10:45:47.782Z,10.60
2019-01-16T10:46:47.761Z,11.30
2019-01-16T10:47:47.695Z,10.10
2019-01-16T10:48:49.855Z,11.90
2019-01-16T10:49:47.588Z,11.10
2019-01-16T10:50:47.565Z,10.30
2019-01-16T10:51:47.555Z,9.80
2019-01-16T10:52:47.486Z,12.30
2019-01-16T10:53:47.438Z,10.40
2019-01-16T10:54:47.400Z,10.60
2019-01-16T10:55:47.329Z,11.40
2019-01-16T10:56:47.299Z,12.30
2019-01-16T10:57:47.310Z,11.00
2019-01-16T10:58:47.212Z,9.80
2019-01-16T10:59:47.176Z,10.80
2019-01-16T11:00:47.136Z,11.70
2019-01-16T11:01:47.089Z,9.80
2019-01-16T11:02:47.058Z,12.10
2019-01-16T11:03:47.035Z,12.90
2019-01-16T11:04:46.950Z,10.90
2019-01-16T11:05:46.926Z,10.80
2019-01-16T11:06:46.864Z,11.50
2019-01-16T11:07:46.826Z,10.40
2019-01-16T11:08:47.384Z,12.00
2019-01-16T11:09:46.724Z,10.30
2019-01-16T11:10:46.743Z,12.80
2019-01-16T11:11:46.685Z,8.30
2019-01-16T11:12:46.638Z,9.90
2019-01-16T11:13:46.597Z,10.90
2019-01-16T11:14:46.537Z,10.90
2019-01-16T11:15:46.491Z,11.10
2019-01-16T11:16:46.463Z,12.60
2019-01-16T11:17:46.410Z,11.60
2019-01-16T11:18:46.387Z,12.00
2019-01-16T11:19:46.303Z,10.50
2019-01-16T11:20:46.279Z,8.60
2019-01-16T11:21:46.234Z,9.70
2019-01-16T11:22:46.183Z,11.00
2019-01-16T11:23:46.129Z,11.40
2019-01-16T11:24:46.124Z,13.40
2019-01-16T11:25:46.065Z,10.50
2019-01-16T11:26:46.022Z,11.50
2019-01-16T11:27:45.982Z,10.90
2019-01-16T11:28:45.908Z,11.20
2019-01-16T11:29:45.916Z,11.10
2019-01-16T11:30:45.832Z,12.20
2019-01-16T11:31:45.796Z,11.20
2019-01-16T11:32:45.776Z,13.90
2019-01-16T11:33:45.722Z,8.70
2019-01-16T11:34:45.663Z,12.80
2019-01-16T11:35:46.255Z,10.70
2019-01-16T11:36:45.588Z,9.60
2019-01-16T11:37:45.534Z,12.70
2019-01-16T11:38:45.487Z,13.60
2019-01-16T11:39:45.428Z,10.30
2019-01-16T11:40:45.403Z,12.30
2019-01-16T11:41:45.383Z,11.30
2019-01-16T11:42:45.329Z,12.40
2019-01-16T11:43:45.250Z,14.60
2019-01-16T11:44:45.252Z,11.90
2019-01-16T11:45:45.216Z,13.00
2019-01-16T11:46:45.153Z,12.20
2019-01-16T11:47:45.082Z,12.20
2019-01-16T11:48:45.066Z,10.80
2019-01-16T11:49:45.019Z,11.80
2019-01-16T11:50:45.002Z,12.50
2019-01-16T11:51:44.951Z,13.40
2019-01-16T11:52:44.871Z,12.40
2019-01-16T11:53:44.853Z,14.00
2019-01-16T11:54:44.783Z,13.40
2019-01-16T11:55:44.757Z,12.30
2019-01-16T11:56:44.733Z,14.00
2019-01-16T11:57:44.663Z,13.60
2019-01-16T11:58:44.652Z,13.40
2019-01-16T11:59:44.580Z,12.90
2019-01-16T12:00:44.545Z,14.60
2019-01-16T12:01:44.475Z,13.20
2019-01-16T12:02:44.460Z,11.60
2019-01-16T12:03:44.426Z,13.30
2019-01-16T12:04:44.392Z,12.80
2019-01-16T12:05:44.308Z,15.60
2019-01-16T12:06:44.279Z,11.30
2019-01-16T12:07:44.212Z,11.30
2019-01-16T12:08:44.191Z,14.80
2019-01-16T12:09:44.126Z,12.20
2019-01-16T12:10:44.140Z,11.40
2019-01-16T12:11:44.045Z,13.30
2019-01-16T12:12:43.990Z,11.60
2019-01-16T12:13:43.981Z,14.00
2019-01-16T12:14:43.938Z,11.90
2019-01-16T12:15:43.915Z,13.60
2019-01-16T12:16:43.856Z,13.00
2019-01-16T12:17:43.776Z,12.60
2019-01-16T12:18:43.792Z,11.60
2019-01-16T12:19:43.686Z,11.10
2019-01-16T12:20:43.666Z,11.70
2019-01-16T12:21:43.588Z,9.20
2019-01-16T12:22:43.552Z,13.10
2019-01-16T12:23:43.516Z,12.50
2019-01-16T12:24:43.478Z,15.20
2019-01-16T12:25:43.416Z,12.40
2019-01-16T12:26:43.418Z,13.50
2019-01-16T12:27:43.335Z,14.60
2019-01-16T12:28:43.296Z,12.40
2019-01-16T12:29:43.258Z,15.20
2019-01-16T12:30:43.206Z,9.60
2019-01-16T12:31:43.168Z,11.10
2019-01-16T12:32:43.263Z,12.60
2019-01-16T12:33:43.078Z,12.60
2019-01-16T12:34:43.025Z,12.50
2019-01-16T12:35:42.988Z,10.90
2019-01-16T12:36:42.970Z,12.20
2019-01-16T12:37:42.916Z,12.90
2019-01-16T12:38:42.894Z,12.20
2019-01-16T12:39:42.824Z,11.80
2019-01-16T12:40:42.776Z,13.00
2019-01-16T12:41:42.723Z,11.40
2019-01-16T12:42:42.677Z,12.60
2019-01-16T12:43:42.628Z,11.00
2019-01-16T12:44:42.607Z,12.20
2019-01-16T12:45:42.538Z,12.00
2019-01-16T12:46:42.512Z,11.90
2019-01-16T12:47:42.477Z,11.70
2019-01-16T12:48:42.423Z,10.10
2019-01-16T12:49:42.369Z,10.80
2019-01-16T12:50:42.373Z,10.10
2019-01-16T12:51:42.301Z,13.10
2019-01-16T12:52:42.230Z,12.20
2019-01-16T12:53:42.201Z,10.90
2019-01-16T12:54:42.159Z,11.00
2019-01-16T12:55:42.170Z,12.10
2019-01-16T12:56:42.081Z,12.30
2019-01-16T12:57:42.043Z,9.40
2019-01-16T12:58:42.015Z,10.00
2019-01-16T12:59:41.944Z,8.90
2019-01-16T13:00:41.897Z,9.50
2019-01-16T13:01:41.885Z,9.80
2019-01-16T13:02:41.830Z,12.00